createdAt,value
2018-09-24T00:01:27.982Z,101680.16
2018-09-24T00:03:56.999Z,101668.30
2018-09-24T00:06:25.965Z,101678.50
2018-09-24T00:08:55.112Z,101679.63
2018-09-24T00:11:25.248Z,101687.30
2018-09-24T00:13:54.203Z,101692.31
2018-09-24T00:16:23.103Z,101691.50
2018-09-24T00:18:52.193Z,101699.49
2018-09-24T00:21:22.273Z,101706.84
2018-09-24T00:23:51.109Z,101711.19
2018-09-24T00:26:20.089Z,101718.36
2018-09-24T00:28:49.137Z,101713.20
2018-09-24T00:31:17.982Z,101724.56
2018-09-24T00:33:47.118Z,101717.55
2018-09-24T00:36:16.063Z,101725.37
2018-09-24T00:38:45.057Z,101731.55
2018-09-24T00:41:16.153Z,101741.22
2018-09-24T00:43:47.380Z,101740.41
2018-09-24T00:46:16.364Z,101738.91
2018-09-24T00:48:45.433Z,101743.38
2018-09-24T00:51:14.509Z,101748.38
2018-09-24T00:53:43.574Z,101753.70
2018-09-24T00:56:12.681Z,101754.55
2018-09-24T00:58:41.758Z,101759.72
2018-09-24T01:01:10.745Z,101757.55
2018-09-24T01:03:39.709Z,101765.23
2018-09-24T01:06:08.602Z,101769.56
2018-09-24T01:08:37.599Z,101767.88
2018-09-24T01:11:06.818Z,101785.39
2018-09-24T01:13:35.732Z,101792.38
2018-09-24T01:16:04.710Z,101794.53
2018-09-24T01:18:33.592Z,101802.53
2018-09-24T01:21:02.460Z,101808.56
2018-09-24T01:23:31.389Z,101816.20
2018-09-24T01:26:00.327Z,101819.86
2018-09-24T01:28:29.274Z,101822.88
2018-09-24T01:30:58.264Z,101823.54
2018-09-24T01:33:27.178Z,101819.71
2018-09-24T01:35:56.021Z,101819.89
2018-09-24T01:38:24.962Z,101833.39
2018-09-24T01:40:53.861Z,101848.92
2018-09-24T01:43:23.604Z,101844.25
2018-09-24T01:45:52.409Z,101855.59
2018-09-24T01:48:21.448Z,101862.06
2018-09-24T01:50:50.392Z,101860.20
2018-09-24T01:53:19.342Z,101863.22
2018-09-24T01:55:50.792Z,101864.55
2018-09-24T01:58:19.774Z,101866.38
2018-09-24T02:00:48.591Z,101867.39
2018-09-24T02:03:17.645Z,101872.06
2018-09-24T02:05:46.465Z,101872.23
2018-09-24T02:08:15.297Z,101879.89
2018-09-24T02:10:44.219Z,101884.20
2018-09-24T02:13:13.472Z,101892.70
2018-09-24T02:15:42.350Z,101890.87
2018-09-24T02:18:11.258Z,101894.87
2018-09-24T02:20:47.034Z,101893.99
2018-09-24T02:23:16.429Z,101902.17
2018-09-24T02:25:45.450Z,101908.52
2018-09-24T02:28:14.297Z,101905.53
2018-09-24T02:30:43.091Z,101913.05
2018-09-24T02:33:13.596Z,101917.53
2018-09-24T02:35:50.137Z,101916.52
2018-09-24T02:38:19.822Z,101915.14
2018-09-24T02:40:48.782Z,101913.80
2018-09-24T02:43:23.247Z,101917.45
2018-09-24T02:45:52.966Z,101919.13
2018-09-24T02:48:21.782Z,101919.62
2018-09-24T02:50:50.546Z,101926.42
2018-09-24T02:53:19.773Z,101940.01
2018-09-24T02:55:48.557Z,101943.83
2018-09-24T02:58:18.889Z,101946.65
2018-09-24T03:00:47.819Z,101948.30
2018-09-24T03:03:16.727Z,101956.34
2018-09-24T03:05:45.739Z,101965.13
2018-09-24T03:08:15.124Z,101970.64
2018-09-24T03:10:44.089Z,101976.33
2018-09-24T03:13:13.169Z,101980.14
2018-09-24T03:15:42.500Z,101979.36
2018-09-24T03:18:11.543Z,101979.02
2018-09-24T03:20:41.780Z,101991.66
2018-09-24T03:23:10.724Z,101991.67
2018-09-24T03:25:40.217Z,101995.05
2018-09-24T03:28:09.100Z,102005.23
2018-09-24T03:30:41.600Z,101998.41
2018-09-24T03:33:10.644Z,102004.02
2018-09-24T03:35:39.493Z,102011.41
2018-09-24T03:38:08.327Z,102014.18
2018-09-24T03:40:37.245Z,102017.98
2018-09-24T03:43:07.140Z,102013.02
2018-09-24T03:45:36.026Z,102021.87
2018-09-24T03:48:04.966Z,102019.87
2018-09-24T03:50:33.907Z,102025.49
2018-09-24T03:53:02.742Z,102027.80
2018-09-24T03:55:31.676Z,102022.44
2018-09-24T03:58:00.537Z,102029.39
2018-09-24T04:00:29.550Z,102025.70
2018-09-24T04:02:58.502Z,102022.96
2018-09-24T04:05:32.419Z,102030.57
2018-09-24T04:08:06.263Z,102035.30
2018-09-24T04:10:40.236Z,102035.56
2018-09-24T04:13:14.305Z,102035.78
2018-09-24T04:15:48.466Z,102037.03
2018-09-24T04:18:22.555Z,102050.22
2018-09-24T04:20:56.488Z,102058.40
2018-09-24T04:23:30.455Z,102068.42
2018-09-24T04:26:04.471Z,102071.44
2018-09-24T04:28:38.424Z,102076.41
2018-09-24T04:31:12.527Z,102074.41
2018-09-24T04:33:46.605Z,102071.36
2018-09-24T04:36:20.536Z,102071.53
2018-09-24T04:38:54.485Z,102075.36
2018-09-24T04:41:28.598Z,102083.45
2018-09-24T04:44:02.371Z,102095.23
2018-09-24T04:46:36.270Z,102093.64
2018-09-24T04:49:10.317Z,102090.19
2018-09-24T04:51:44.496Z,102099.81
2018-09-24T04:54:18.469Z,102103.30
2018-09-24T04:56:52.586Z,102105.77
2018-09-24T04:59:26.465Z,102101.91
2018-09-24T05:02:00.427Z,102102.40
2018-09-24T05:04:34.365Z,102108.36
2018-09-24T05:07:08.462Z,102115.13
2018-09-24T05:09:42.505Z,102116.48
2018-09-24T05:12:16.684Z,102113.71
2018-09-24T05:14:50.613Z,102126.25
2018-09-24T05:17:24.764Z,102127.09
2018-09-24T05:19:58.792Z,102125.89
2018-09-24T05:22:32.738Z,102126.71
2018-09-24T05:25:06.866Z,102132.03
2018-09-24T05:27:41.080Z,102128.06
2018-09-24T05:30:15.172Z,102126.38
2018-09-24T05:32:49.223Z,102132.47
2018-09-24T05:35:23.231Z,102137.97
2018-09-24T05:37:57.870Z,102137.39
2018-09-24T05:40:31.806Z,102142.36
2018-09-24T05:43:05.887Z,102145.80
2018-09-24T05:45:39.921Z,102145.85
2018-09-24T05:48:13.850Z,102151.56
2018-09-24T05:50:47.898Z,102161.34
2018-09-24T05:53:21.860Z,102163.55
2018-09-24T05:55:55.953Z,102161.37
2018-09-24T05:58:29.933Z,102168.22
2018-09-24T06:01:03.919Z,102168.71
2018-09-24T06:03:37.827Z,102174.21
2018-09-24T06:06:12.238Z,102179.08
2018-09-24T06:08:46.216Z,102182.72
2018-09-24T06:11:20.253Z,102186.80
2018-09-24T06:13:54.445Z,102194.59
2018-09-24T06:16:28.291Z,102200.18
2018-09-24T06:19:02.330Z,102204.08
2018-09-24T06:21:36.117Z,102204.31
2018-09-24T06:24:11.183Z,102207.23
2018-09-24T06:26:45.157Z,102212.64
2018-09-24T06:29:19.167Z,102219.55
2018-09-24T06:31:53.095Z,102226.13
2018-09-24T06:34:27.181Z,102228.66
2018-09-24T06:37:01.230Z,102229.52
2018-09-24T06:39:35.276Z,102234.27
2018-09-24T06:42:17.039Z,102229.95
2018-09-24T06:44:58.493Z,102239.36
2018-09-24T06:47:34.538Z,102236.72
2018-09-24T06:50:08.449Z,102241.44
2018-09-24T06:52:43.663Z,102247.80
2018-09-24T06:55:17.905Z,102251.84
2018-09-24T06:57:51.885Z,102261.91
2018-09-24T07:00:25.968Z,102258.59
2018-09-24T07:02:59.971Z,102252.91
2018-09-24T07:05:34.069Z,102255.94
2018-09-24T07:08:07.860Z,102256.80
2018-09-24T07:10:42.035Z,102263.30
2018-09-24T07:13:16.073Z,102272.72
2018-09-24T07:15:49.976Z,102269.69
2018-09-24T07:18:24.113Z,102276.23
2018-09-24T07:20:58.128Z,102280.92
2018-09-24T07:23:34.084Z,102287.45
2018-09-24T07:26:08.128Z,102299.33
2018-09-24T07:28:42.253Z,102292.45
2018-09-24T07:31:16.232Z,102305.03
2018-09-24T07:33:50.875Z,102308.85
2018-09-24T07:36:24.821Z,102309.55
2018-09-24T07:38:58.830Z,102315.90
2018-09-24T07:41:32.727Z,102313.53
2018-09-24T07:44:07.862Z,102322.09
2018-09-24T07:46:41.764Z,102332.96
2018-09-24T07:49:15.868Z,102335.49
2018-09-24T07:51:50.014Z,102329.62
2018-09-24T07:54:25.210Z,102340.30
2018-09-24T07:56:59.079Z,102347.68
2018-09-24T07:59:33.179Z,102347.84
2018-09-24T08:02:07.225Z,102360.37
2018-09-24T08:04:42.204Z,102361.72
2018-09-24T08:07:16.137Z,102360.34
2018-09-24T08:09:50.227Z,102360.62
2018-09-24T08:12:24.189Z,102359.42
2018-09-24T08:14:59.165Z,102368.25
2018-09-24T08:17:33.073Z,102369.53
2018-09-24T08:20:07.031Z,102383.27
2018-09-24T08:22:41.973Z,102378.89
2018-09-24T08:25:16.053Z,102377.82
2018-09-24T08:27:50.108Z,102391.47
2018-09-24T08:30:24.357Z,102392.45
2018-09-24T08:32:59.421Z,102391.75
2018-09-24T08:35:33.515Z,102398.47
2018-09-24T08:38:08.260Z,102398.83
2018-09-24T08:40:42.213Z,102401.32
2018-09-24T08:43:17.244Z,102399.73
2018-09-24T08:45:51.276Z,102410.13
2018-09-24T08:48:25.265Z,102404.45
2018-09-24T08:50:59.403Z,102411.77
2018-09-24T08:53:33.712Z,102412.28
2018-09-24T08:56:07.744Z,102409.37
2018-09-24T08:58:41.697Z,102409.44
2018-09-24T09:01:15.937Z,102419.73
2018-09-24T09:03:55.505Z,102407.58
2018-09-24T09:06:29.585Z,102407.58
2018-09-24T09:09:03.732Z,102410.31
2018-09-24T09:11:37.816Z,102405.08
2018-09-24T09:14:12.074Z,102414.58
2018-09-24T09:16:46.052Z,102411.59
2018-09-24T09:19:20.556Z,102413.06
2018-09-24T09:21:54.518Z,102421.92
2018-09-24T09:24:28.558Z,102417.55
2018-09-24T09:27:02.598Z,102422.30
2018-09-24T09:29:36.774Z,102428.91
2018-09-24T09:32:10.685Z,102430.80
2018-09-24T09:34:48.240Z,102430.66
2018-09-24T09:37:22.284Z,102450.63
2018-09-24T09:39:56.429Z,102443.90
2018-09-24T09:42:30.507Z,102449.23
2018-09-24T09:45:04.630Z,102439.36
2018-09-24T09:47:38.693Z,102440.94
2018-09-24T09:50:12.646Z,102434.49
2018-09-24T09:52:46.650Z,102460.08
2018-09-24T09:55:22.736Z,102465.69
2018-09-24T09:57:56.944Z,102465.01
2018-09-24T10:00:31.276Z,102454.78
2018-09-24T10:03:05.287Z,102453.63
2018-09-24T10:05:41.577Z,102459.97
2018-09-24T10:08:15.665Z,102464.73
2018-09-24T10:10:49.780Z,102457.20
2018-09-24T10:13:23.897Z,102450.80
2018-09-24T10:15:57.998Z,102463.05
2018-09-24T10:18:31.965Z,102449.19
2018-09-24T10:21:06.025Z,102451.51
2018-09-24T10:23:39.995Z,102450.59
2018-09-24T10:26:14.144Z,102441.90
2018-09-24T10:28:48.148Z,102438.84
2018-09-24T10:31:22.265Z,102446.38
2018-09-24T10:33:56.244Z,102445.24
2018-09-24T10:36:30.152Z,102435.25
2018-09-24T10:39:04.097Z,102447.55
2018-09-24T10:41:38.284Z,102446.50
2018-09-24T10:44:12.512Z,102443.89
2018-09-24T10:46:46.697Z,102454.22
2018-09-24T10:49:20.804Z,102449.47
2018-09-24T10:51:54.837Z,102450.56
2018-09-24T10:54:29.891Z,102450.63
2018-09-24T10:57:03.940Z,102451.70
2018-09-24T10:59:37.993Z,102461.91
2018-09-24T11:02:12.153Z,102455.09
2018-09-24T11:04:46.177Z,102456.15
2018-09-24T11:07:20.265Z,102454.05
2018-09-24T11:09:54.189Z,102450.28
2018-09-24T11:12:28.027Z,102444.41
2018-09-24T11:15:02.169Z,102442.35
2018-09-24T11:17:36.442Z,102440.23
2018-09-24T11:20:10.371Z,102441.50
2018-09-24T11:22:44.404Z,102431.97
2018-09-24T11:25:19.400Z,102454.45
2018-09-24T11:27:53.538Z,102454.22
2018-09-24T11:30:27.645Z,102450.75
2018-09-24T11:33:01.603Z,102463.91
2018-09-24T11:35:35.637Z,102462.39
2018-09-24T11:38:09.723Z,102454.56
2018-09-24T11:40:43.735Z,102458.23
2018-09-24T11:43:17.743Z,102462.09
2018-09-24T11:45:59.212Z,102459.05
2018-09-24T11:48:33.073Z,102450.77
2018-09-24T11:51:07.081Z,102453.59
2018-09-24T11:53:41.016Z,102458.27
2018-09-24T11:56:15.906Z,102453.05
2018-09-24T11:58:49.852Z,102453.09
2018-09-24T12:01:23.953Z,102453.16
2018-09-24T12:03:57.961Z,102457.03
2018-09-24T12:06:32.011Z,102454.86
2018-09-24T12:09:05.948Z,102464.45
2018-09-24T12:11:39.989Z,102466.90
2018-09-24T12:14:13.958Z,102492.98
2018-09-24T12:16:48.056Z,102498.59
2018-09-24T12:19:22.088Z,102503.28
2018-09-24T12:21:56.022Z,102488.55
2018-09-24T12:24:29.929Z,102486.84
2018-09-24T12:27:03.943Z,102481.96
2018-09-24T12:29:37.961Z,102481.81
2018-09-24T12:32:11.843Z,102471.94
2018-09-24T12:34:46.922Z,102478.47
2018-09-24T12:37:20.938Z,102469.66
2018-09-24T12:39:55.087Z,102476.30
2018-09-24T12:42:29.165Z,102470.98
2018-09-24T12:45:03.341Z,102473.13
2018-09-24T12:47:37.425Z,102474.98
2018-09-24T12:50:11.297Z,102476.78
2018-09-24T12:52:45.203Z,102484.35
2018-09-24T12:55:19.143Z,102478.08
2018-09-24T12:57:53.047Z,102483.13
2018-09-24T13:00:26.956Z,102481.34
2018-09-24T13:03:00.853Z,102479.31
2018-09-24T13:05:35.929Z,102484.39
2018-09-24T13:08:09.941Z,102485.23
2018-09-24T13:10:43.944Z,102489.70
2018-09-24T13:13:17.921Z,102492.40
2018-09-24T13:15:51.936Z,102486.83
2018-09-24T13:18:25.756Z,102492.67
2018-09-24T13:20:59.669Z,102479.66
2018-09-24T13:23:33.685Z,102483.26
2018-09-24T13:26:09.921Z,102478.09
2018-09-24T13:28:43.791Z,102465.82
2018-09-24T13:31:17.885Z,102456.83
2018-09-24T13:33:51.809Z,102449.95
2018-09-24T13:36:26.944Z,102453.92
2018-09-24T13:39:00.977Z,102451.70
2018-09-24T13:41:35.100Z,102473.84
2018-09-24T13:44:09.177Z,102464.59
2018-09-24T13:46:45.341Z,102468.91
2018-09-24T13:49:19.264Z,102461.20
2018-09-24T13:51:53.340Z,102456.11
2018-09-24T13:54:27.380Z,102469.86
2018-09-24T13:57:01.481Z,102461.11
2018-09-24T13:59:35.412Z,102479.91
2018-09-24T14:02:09.391Z,102466.44
2018-09-24T14:04:43.418Z,102473.58
2018-09-24T14:07:17.677Z,102474.09
2018-09-24T14:09:52.441Z,102508.47
2018-09-24T14:12:26.431Z,102542.35
2018-09-24T14:15:00.558Z,102527.30
2018-09-24T14:17:34.541Z,102538.91
2018-09-24T14:20:08.422Z,102544.56
2018-09-24T14:22:42.377Z,102539.09
2018-09-24T14:25:21.885Z,102522.04
2018-09-24T14:27:55.948Z,102522.86
2018-09-24T14:30:30.180Z,102517.11
2018-09-24T14:33:04.227Z,102512.15
2018-09-24T14:35:39.280Z,102504.34
2018-09-24T14:38:13.105Z,102508.99
2018-09-24T14:40:47.004Z,102520.88
2018-09-24T14:43:21.013Z,102506.39
2018-09-24T14:45:57.165Z,102503.91
2018-09-24T14:48:31.025Z,102491.76
2018-09-24T14:51:04.924Z,102492.38
2018-09-24T14:53:38.924Z,102503.27
2018-09-24T14:56:12.876Z,102507.70
2018-09-24T14:58:46.950Z,102497.98
2018-09-24T15:01:21.061Z,102486.14
2018-09-24T15:03:54.992Z,102499.95
2018-09-24T15:06:29.173Z,102500.48
2018-09-24T15:09:03.041Z,102513.57
2018-09-24T15:11:37.202Z,102524.28
2018-09-24T15:14:11.154Z,102532.44
2018-09-24T15:16:45.061Z,102535.67
2018-09-24T15:19:19.832Z,102524.33
2018-09-24T15:21:53.900Z,102528.47
2018-09-24T15:24:27.924Z,102520.16
2018-09-24T15:27:02.237Z,102523.83
2018-09-24T15:29:36.282Z,102522.97
2018-09-24T15:32:10.444Z,102514.11
2018-09-24T15:34:44.367Z,102519.88
2018-09-24T15:37:18.703Z,102532.48
2018-09-24T15:39:52.965Z,102535.70
2018-09-24T15:42:26.881Z,102529.94
2018-09-24T15:45:00.943Z,102517.34
2018-09-24T15:47:35.249Z,102523.83
2018-09-24T15:50:09.376Z,102528.78
2018-09-24T15:52:43.616Z,102520.26
2018-09-24T15:55:17.695Z,102520.76
2018-09-24T15:57:53.890Z,102520.13
2018-09-24T16:00:27.909Z,102524.66
2018-09-24T16:03:02.002Z,102527.85
2018-09-24T16:05:35.959Z,102529.34
2018-09-24T16:08:10.020Z,102536.31
2018-09-24T16:10:44.087Z,102525.48
2018-09-24T16:13:25.009Z,102529.03
2018-09-24T16:15:58.985Z,102551.94
2018-09-24T16:18:33.106Z,102538.02
2018-09-24T16:21:07.155Z,102547.38
2018-09-24T16:23:41.105Z,102548.95
2018-09-24T16:26:16.058Z,102556.35
2018-09-24T16:28:49.948Z,102550.14
2018-09-24T16:31:23.930Z,102557.58
2018-09-24T16:33:58.085Z,102558.91
2018-09-24T16:36:33.316Z,102555.53
2018-09-24T16:39:07.373Z,102570.23
2018-09-24T16:41:41.512Z,102576.55
2018-09-24T16:44:15.469Z,102572.45
2018-09-24T16:46:51.556Z,102579.97
2018-09-24T16:49:25.804Z,102581.79
2018-09-24T16:51:59.852Z,102591.91
2018-09-24T16:54:33.757Z,102595.06
2018-09-24T16:57:08.954Z,102601.88
2018-09-24T16:59:42.893Z,102611.46
2018-09-24T17:02:16.909Z,102598.92
2018-09-24T17:04:51.080Z,102608.35
2018-09-24T17:07:26.273Z,102613.58
2018-09-24T17:10:00.495Z,102621.16
2018-09-24T17:12:34.629Z,102623.01
2018-09-24T17:15:08.732Z,102627.04
2018-09-24T17:17:42.800Z,102627.85
2018-09-24T17:20:16.868Z,102640.22
2018-09-24T17:22:50.807Z,102644.36
2018-09-24T17:25:24.832Z,102645.84
2018-09-24T17:27:58.967Z,102646.20
2018-09-24T17:30:32.785Z,102652.05
2018-09-24T17:33:06.740Z,102662.78
2018-09-24T17:35:40.782Z,102667.95
2018-09-24T17:38:14.618Z,102662.59
2018-09-24T17:40:48.781Z,102669.65
2018-09-24T17:43:22.961Z,102665.17
2018-09-24T17:45:57.043Z,102667.36
2018-09-24T17:48:30.961Z,102669.22
2018-09-24T17:51:04.797Z,102671.73
2018-09-24T17:53:38.728Z,102668.38
2018-09-24T17:56:12.736Z,102676.31
2018-09-24T17:58:46.733Z,102682.57
2018-09-24T18:01:20.766Z,102684.53
2018-09-24T18:03:55.133Z,102690.51
2018-09-24T18:06:29.156Z,102698.85
2018-09-24T18:09:03.514Z,102693.42
2018-09-24T18:11:37.869Z,102701.98
2018-09-24T18:14:11.896Z,102710.59
2018-09-24T18:16:46.921Z,102711.68
2018-09-24T18:19:20.925Z,102721.16
2018-09-24T18:21:54.838Z,102714.14
2018-09-24T18:24:28.900Z,102713.39
2018-09-24T18:27:03.076Z,102715.59
2018-09-24T18:29:36.989Z,102716.36
2018-09-24T18:32:11.017Z,102718.06
2018-09-24T18:34:45.169Z,102719.70
2018-09-24T18:37:19.396Z,102725.34
2018-09-24T18:39:53.385Z,102721.52
2018-09-24T18:42:27.622Z,102727.12
2018-09-24T18:45:01.495Z,102732.41
2018-09-24T18:47:35.646Z,102739.50
2018-09-24T18:50:09.734Z,102737.21
2018-09-24T18:52:43.922Z,102742.73
2018-09-24T18:55:18.171Z,102742.08
2018-09-24T18:57:52.116Z,102753.42
2018-09-24T19:00:26.272Z,102760.22
2018-09-24T19:03:00.247Z,102751.64
2018-09-24T19:05:34.176Z,102754.39
2018-09-24T19:08:08.272Z,102749.86
2018-09-24T19:10:42.242Z,102758.47
2018-09-24T19:13:16.505Z,102754.84
2018-09-24T19:15:50.698Z,102761.30
2018-09-24T19:18:24.531Z,102760.05
2018-09-24T19:20:58.483Z,102764.52
2018-09-24T19:23:32.653Z,102760.71
2018-09-24T19:26:06.761Z,102770.10
2018-09-24T19:28:40.856Z,102766.52
2018-09-24T19:31:14.962Z,102757.70
2018-09-24T19:33:48.829Z,102760.66
2018-09-24T19:36:23.007Z,102758.89
2018-09-24T19:38:57.217Z,102760.61
2018-09-24T19:41:31.307Z,102761.63
2018-09-24T19:44:05.301Z,102763.95
2018-09-24T19:46:39.213Z,102770.06
2018-09-24T19:49:13.313Z,102768.56
2018-09-24T19:51:47.180Z,102769.78
2018-09-24T19:54:21.195Z,102769.19
2018-09-24T19:56:55.077Z,102768.91
2018-09-24T19:59:29.227Z,102771.00
2018-09-24T20:02:03.060Z,102769.54
2018-09-24T20:04:37.159Z,102774.54
2018-09-24T20:07:11.110Z,102781.34
2018-09-24T20:09:45.285Z,102779.91
2018-09-24T20:12:19.287Z,102782.46
2018-09-24T20:14:53.405Z,102787.28
2018-09-24T20:17:27.309Z,102786.11
2018-09-24T20:20:01.559Z,102790.16
2018-09-24T20:22:35.557Z,102791.20
2018-09-24T20:25:09.605Z,102790.45
2018-09-24T20:27:43.588Z,102795.82
2018-09-24T20:30:17.563Z,102800.81
2018-09-24T20:32:51.404Z,102801.56
2018-09-24T20:35:25.425Z,102800.92
2018-09-24T20:37:59.400Z,102815.20
2018-09-24T20:40:33.540Z,102817.20
2018-09-24T20:43:07.566Z,102821.55
2018-09-24T20:45:41.504Z,102825.83
2018-09-24T20:48:15.725Z,102831.53
2018-09-24T20:50:49.829Z,102833.84
2018-09-24T20:53:23.737Z,102835.81
2018-09-24T20:55:57.720Z,102833.85
2018-09-24T20:58:31.757Z,102838.48
2018-09-24T21:01:05.692Z,102846.22
2018-09-24T21:03:39.705Z,102849.31
2018-09-24T21:06:13.712Z,102854.08
2018-09-24T21:08:47.878Z,102856.48
2018-09-24T21:11:22.055Z,102860.67
2018-09-24T21:13:56.102Z,102864.55
2018-09-24T21:16:30.126Z,102864.59
2018-09-24T21:19:04.353Z,102871.13
2018-09-24T21:21:38.279Z,102864.37
2018-09-24T21:24:12.813Z,102870.42
2018-09-24T21:26:46.859Z,102865.38
2018-09-24T21:29:20.776Z,102879.31
2018-09-24T21:31:54.936Z,102878.02
2018-09-24T21:34:29.018Z,102871.06
2018-09-24T21:37:03.173Z,102881.80
2018-09-24T21:39:37.118Z,102884.52
2018-09-24T21:42:11.176Z,102884.51
2018-09-24T21:44:45.157Z,102884.88
2018-09-24T21:47:19.247Z,102881.98
2018-09-24T21:49:53.200Z,102880.44
2018-09-24T21:52:27.336Z,102880.55
2018-09-24T21:55:01.509Z,102884.14
2018-09-24T21:57:35.656Z,102887.11
2018-09-24T22:00:10.200Z,102888.05
2018-09-24T22:02:44.211Z,102890.48
2018-09-24T22:05:18.348Z,102890.52
2018-09-24T22:07:52.300Z,102892.34
2018-09-24T22:10:26.248Z,102890.05
2018-09-24T22:13:00.228Z,102895.18
2018-09-24T22:15:34.134Z,102892.54
2018-09-24T22:18:08.042Z,102887.36
2018-09-24T22:20:42.305Z,102896.17
2018-09-24T22:23:16.273Z,102905.58
2018-09-24T22:25:50.233Z,102906.50
2018-09-24T22:28:24.196Z,102902.67
2018-09-24T22:30:58.260Z,102904.08
2018-09-24T22:33:32.439Z,102895.79
2018-09-24T22:36:06.500Z,102909.23
2018-09-24T22:38:41.476Z,102909.23
2018-09-24T22:41:15.387Z,102912.84
2018-09-24T22:43:49.497Z,102917.48
2018-09-24T22:46:23.472Z,102919.08
2018-09-24T22:48:57.400Z,102917.96
2018-09-24T22:51:31.285Z,102913.28
2018-09-24T22:54:05.377Z,102917.48
2018-09-24T22:56:39.471Z,102920.07
2018-09-24T22:59:13.591Z,102914.11
2018-09-24T23:01:47.713Z,102916.59
2018-09-24T23:04:21.796Z,102924.76
2018-09-24T23:06:55.805Z,102921.89
2018-09-24T23:09:30.024Z,102922.59
2018-09-24T23:12:04.028Z,102929.72
2018-09-24T23:14:38.160Z,102930.11
2018-09-24T23:17:12.156Z,102932.41
2018-09-24T23:19:46.062Z,102931.07
2018-09-24T23:22:20.178Z,102931.30
2018-09-24T23:24:54.386Z,102929.41
2018-09-24T23:27:28.442Z,102934.85
2018-09-24T23:30:02.937Z,102933.44
2018-09-24T23:32:36.999Z,102930.11
2018-09-24T23:35:11.146Z,102926.73
2018-09-24T23:37:47.140Z,102929.81
2018-09-24T23:40:21.086Z,102929.74
2018-09-24T23:42:54.923Z,102936.48
2018-09-24T23:45:28.892Z,102933.30
2018-09-24T23:48:02.890Z,102931.70
2018-09-24T23:50:36.793Z,102930.47
2018-09-24T23:53:10.955Z,102933.41
2018-09-24T23:55:44.828Z,102934.03
2018-09-24T23:58:18.713Z,102937.22
